Gambill, Indiana
Current Conditions -  °F | °C
As of 3:35 AM on Friday 19 Dec 2014 (Local Time) from KRSV Reporting Station
Overcast Overcast  
Wind Chill: 22°   Ceiling: 1400
Heat Index: 27°   Visibility: 7mi
Dew Point: 26°   Wind: 5mph
Humidity: 94%   Direction: 350°N
Pressure: 30.31"   Gusts: NA
Location:  39.0631°N, 87.2571°W
Report Text: KRSV 190835Z AUTO 35004KT 7SM OVC014 M03/M04 A3031 RMK AO2 T10271036
Loading
Personal Weather Stations






























Interactive Weather Map New forecast layout! Learn more

10-Day Weather Forecast

Advertisements
Track Severe Weather on mobile